Time;durP1;ratioP1;P1;durP2;ratioP2;P2;SDS_P1;SDS_P2;PMS_P1;PMS_P2;Temp;Humidity;BMP_temperature;BMP_pressure;BME280_temperature;BME280_humidity;BME280_pressure;Samples;Min_cycle;Max_cycle;Signal;HPM_P1;HPM_P2
2022/10/19 00:01:56;;;;;;;1.83;0.55;;;9.70;99.90;;;;;;5004241;28;20045;-80
2022/10/19 00:04:22;;;;;;;2.70;0.80;;;9.60;99.90;;;;;;4997423;28;20026;-80
2022/10/19 00:06:48;;;;;;;3.25;0.90;;;9.60;99.90;;;;;;5004478;28;20113;-80
2022/10/19 00:09:17;;;;;;;3.53;0.85;;;9.60;99.90;;;;;;5002212;28;20057;-81
2022/10/19 00:11:48;;;;;;;2.30;0.80;;;9.50;99.90;;;;;;5009653;28;20023;-81
2022/10/19 00:14:17;;;;;;;3.38;0.70;;;9.50;99.90;;;;;;5005356;28;20026;-81
2022/10/19 00:16:45;;;;;;;2.97;0.90;;;9.40;99.90;;;;;;4980719;28;20369;-80
2022/10/19 00:19:14;;;;;;;2.85;0.90;;;9.30;99.90;;;;;;4985313;28;20041;-81
2022/10/19 00:21:40;;;;;;;2.58;0.82;;;9.30;99.90;;;;;;4983324;28;20049;-81
2022/10/19 00:24:07;;;;;;;1.83;0.80;;;9.30;99.90;;;;;;4981839;28;20026;-81
2022/10/19 00:26:34;;;;;;;1.85;0.75;;;9.30;99.90;;;;;;4989065;28;20528;-81
2022/10/19 00:29:00;;;;;;;2.47;0.90;;;9.30;99.90;;;;;;4986819;28;20014;-81
2022/10/19 00:31:27;;;;;;;3.65;0.95;;;9.30;99.90;;;;;;4979991;28;20030;-81
2022/10/19 00:33:55;;;;;;;3.25;0.70;;;9.20;99.90;;;;;;4982227;28;20030;-81
2022/10/19 00:36:30;;;;;;;1.92;0.63;;;9.20;99.90;;;;;;4985002;28;20037;-81
2022/10/19 00:38:57;;;;;;;2.00;0.85;;;9.20;99.90;;;;;;4985349;28;20030;-81
2022/10/19 00:41:25;;;;;;;2.55;0.73;;;9.20;99.90;;;;;;4999401;28;20109;-81
2022/10/19 00:44:02;;;;;;;2.83;0.75;;;9.20;99.90;;;;;;4965327;28;20046;-80
2022/10/19 00:46:31;;;;;;;1.90;0.70;;;9.20;99.90;;;;;;4970751;28;20460;-81
2022/10/19 00:49:15;;;;;;;2.80;0.70;;;9.20;99.90;;;;;;4977224;28;20449;-81
2022/10/19 00:51:42;;;;;;;;;;;9.20;99.90;;;;;;4991885;28;20022;-81
2022/10/19 00:54:09;;;;;;;2.03;0.60;;;9.10;99.90;;;;;;4977025;28;19960;-80
2022/10/19 00:56:38;;;;;;;1.30;0.77;;;9.10;99.90;;;;;;4976817;28;20037;-80
2022/10/19 00:59:05;;;;;;;3.85;0.80;;;9.10;99.90;;;;;;4977086;28;20078;-81
2022/10/19 01:01:32;;;;;;;1.73;0.70;;;9.00;99.90;;;;;;4976810;28;20022;-81
2022/10/19 01:03:58;;;;;;;2.80;1.13;;;9.00;99.90;;;;;;4966880;28;20030;-81
2022/10/19 01:06:25;;;;;;;2.83;0.73;;;8.90;99.90;;;;;;4976632;28;20027;-81
2022/10/19 01:08:52;;;;;;;3.38;0.80;;;8.90;99.90;;;;;;4976449;28;20122;-81
2022/10/19 01:11:48;;;;;;;2.47;1.00;;;8.90;99.90;;;;;;4976149;28;20026;-81
2022/10/19 01:14:32;;;;;;;3.55;0.90;;;8.90;99.90;;;;;;4967271;28;20026;-81
2022/10/19 01:17:10;;;;;;;2.65;0.70;;;8.80;99.90;;;;;;4993793;28;20081;-80
2022/10/19 01:19:48;;;;;;;2.00;0.77;;;8.80;99.90;;;;;;4976540;28;20031;-81
2022/10/19 01:22:35;;;;;;;1.98;0.90;;;8.70;99.90;;;;;;4973019;28;20355;-80
2022/10/19 01:25:19;;;;;;;1.33;0.65;;;8.70;99.90;;;;;;4973192;28;20027;-81
2022/10/19 01:28:07;;;;;;;1.45;0.70;;;8.60;99.90;;;;;;4963013;28;20135;-81
2022/10/19 01:30:47;;;;;;;1.83;0.90;;;8.60;99.90;;;;;;4976685;28;20019;-81
2022/10/19 01:33:41;;;;;;;2.15;0.90;;;8.60;99.90;;;;;;4976423;28;20026;-81
2022/10/19 01:36:43;;;;;;;1.50;0.80;;;8.50;99.90;;;;;;4997207;28;20047;-81
2022/10/19 01:39:12;;;;;;;2.22;0.82;;;8.50;99.90;;;;;;4980538;28;20034;-81
2022/10/19 01:42:04;;;;;;;2.30;0.82;;;8.50;99.90;;;;;;4986158;28;20031;-80
2022/10/19 01:44:59;;;;;;;1.60;0.77;;;8.40;99.90;;;;;;5020569;28;20057;-81
2022/10/19 01:47:54;;;;;;;1.75;0.73;;;8.40;99.90;;;;;;4998562;28;20117;-80
2022/10/19 01:50:25;;;;;;;1.75;0.93;;;8.40;99.90;;;;;;5037153;28;19998;-79
2022/10/19 01:52:54;;;;;;;2.55;0.90;;;8.30;99.90;;;;;;5019906;28;20076;-80
2022/10/19 01:55:21;;;;;;;4.70;1.40;;;8.30;99.90;;;;;;5002716;28;20022;-80
2022/10/19 01:57:52;;;;;;;3.85;0.88;;;8.20;99.90;;;;;;5001131;28;20445;-80
2022/10/19 02:00:21;;;;;;;3.67;0.82;;;8.20;99.90;;;;;;5000235;28;20061;-80
2022/10/19 02:02:49;;;;;;;2.90;1.00;;;8.10;99.90;;;;;;5018520;28;20112;-80
2022/10/19 02:05:19;;;;;;;3.35;1.20;;;8.20;99.90;;;;;;5000189;28;20419;-79
2022/10/19 02:07:53;;;;;;;2.03;0.88;;;8.10;99.90;;;;;;5000297;28;20030;-80
2022/10/19 02:10:20;;;;;;;2.28;1.00;;;8.10;99.90;;;;;;5000138;28;20033;-80
2022/10/19 02:12:48;;;;;;;1.75;0.75;;;8.00;99.90;;;;;;4999093;28;20018;-81
2022/10/19 02:15:18;;;;;;;1.70;0.82;;;8.00;99.90;;;;;;5000287;28;20454;-80
2022/10/19 02:17:52;;;;;;;2.67;0.93;;;8.00;99.90;;;;;;4999461;28;20034;-81
2022/10/19 02:20:18;;;;;;;2.38;0.80;;;8.00;99.90;;;;;;4999304;28;20018;-81
2022/10/19 02:22:44;;;;;;;2.20;0.80;;;8.00;99.90;;;;;;4998528;28;20014;-81
2022/10/19 02:25:11;;;;;;;1.58;0.75;;;8.00;99.90;;;;;;4999555;28;20425;-81
2022/10/19 02:27:42;;;;;;;2.15;1.10;;;8.00;99.90;;;;;;5016738;28;20021;-81
2022/10/19 02:30:14;;;;;;;3.45;1.00;;;7.90;99.90;;;;;;4999355;28;20025;-81
2022/10/19 02:32:42;;;;;;;2.40;0.90;;;7.90;99.90;;;;;;4999006;28;20492;-80
2022/10/19 02:35:09;;;;;;;2.88;0.88;;;7.80;99.90;;;;;;4999084;28;20026;-80
2022/10/19 02:37:35;;;;;;;3.33;0.95;;;7.80;99.90;;;;;;5016547;28;20037;-80
2022/10/19 02:40:01;;;;;;;2.63;1.00;;;7.80;99.90;;;;;;4999250;28;20034;-80
2022/10/19 02:42:38;;;;;;;3.42;0.90;;;7.70;99.90;;;;;;4986197;28;20042;-80
2022/10/19 02:45:21;;;;;;;2.65;1.10;;;7.70;99.90;;;;;;4985833;28;20105;-80
2022/10/19 02:47:53;;;;;;;1.77;0.93;;;7.70;99.90;;;;;;5015153;28;20050;-80
2022/10/19 02:50:20;;;;;;;2.23;0.87;;;7.60;99.90;;;;;;4998801;28;20488;-80
2022/10/19 02:52:46;;;;;;;2.08;0.90;;;7.60;99.90;;;;;;4985531;28;20044;-80
2022/10/19 02:55:11;;;;;;;2.30;1.05;;;7.60;99.90;;;;;;4997901;28;20026;-80
2022/10/19 02:57:37;;;;;;;3.60;0.93;;;7.50;99.90;;;;;;4998725;28;20452;-80
2022/10/19 03:00:05;;;;;;;2.15;1.10;;;7.60;99.90;;;;;;5016035;28;20022;-80
2022/10/19 03:02:31;;;;;;;2.55;1.08;;;7.60;99.90;;;;;;4981976;28;20038;-80
2022/10/19 03:04:57;;;;;;;2.92;1.00;;;7.60;99.90;;;;;;4997369;28;20045;-80
2022/10/19 03:07:23;;;;;;;2.25;1.20;;;7.60;99.90;;;;;;5015528;28;20037;-80
2022/10/19 03:09:49;;;;;;;1.90;1.20;;;7.60;99.90;;;;;;4998362;28;20026;-80
2022/10/19 03:12:15;;;;;;;2.67;0.98;;;7.50;99.90;;;;;;4998050;28;20014;-80
2022/10/19 03:14:41;;;;;;;1.88;0.90;;;7.50;99.90;;;;;;5016143;28;20111;-80
2022/10/19 03:17:07;;;;;;;1.92;0.95;;;7.50;99.90;;;;;;4984116;28;20034;-80
2022/10/19 03:19:34;;;;;;;2.65;1.20;;;7.50;99.90;;;;;;4997851;28;20030;-81
2022/10/19 03:22:00;;;;;;;2.25;1.10;;;7.40;99.90;;;;;;4997785;28;20470;-81
2022/10/19 03:24:26;;;;;;;4.65;1.17;;;7.40;99.90;;;;;;5015339;28;20029;-80
2022/10/19 03:26:52;;;;;;;1.92;1.05;;;7.40;99.90;;;;;;5015540;28;20042;-81
2022/10/19 03:29:17;;;;;;;1.40;0.90;;;7.40;99.90;;;;;;4997690;28;20014;-80
2022/10/19 03:31:43;;;;;;;2.17;1.00;;;7.40;99.90;;;;;;4997097;28;20030;-80
2022/10/19 03:34:09;;;;;;;1.23;0.90;;;7.30;99.90;;;;;;4997758;28;20026;-80
2022/10/19 03:36:37;;;;;;;2.10;1.00;;;7.30;99.90;;;;;;5021237;28;20036;-80
2022/10/19 03:39:06;;;;;;;2.38;1.20;;;7.30;99.90;;;;;;5013640;28;20030;-80
2022/10/19 03:41:33;;;;;;;3.42;1.40;;;7.30;99.90;;;;;;5017146;28;20065;-80
2022/10/19 03:43:59;;;;;;;2.65;1.38;;;7.30;99.90;;;;;;5010008;28;20049;-80
2022/10/19 03:46:25;;;;;;;1.80;0.95;;;7.30;99.90;;;;;;5002503;28;20053;-81
2022/10/19 03:48:52;;;;;;;2.38;1.10;;;7.30;99.90;;;;;;4998264;28;20044;-81
2022/10/19 03:51:24;;;;;;;2.65;1.05;;;7.30;99.90;;;;;;4999088;28;20033;-81
2022/10/19 03:53:55;;;;;;;1.83;1.13;;;7.30;99.90;;;;;;4998619;28;20053;-81
2022/10/19 03:56:22;;;;;;;2.30;1.10;;;7.30;99.90;;;;;;4998219;28;20030;-81
2022/10/19 03:58:49;;;;;;;2.15;1.00;;;7.30;99.90;;;;;;5022942;28;20022;-80
2022/10/19 04:01:21;;;;;;;2.47;1.25;;;7.30;99.90;;;;;;5005032;28;20028;-80
2022/10/19 04:03:47;;;;;;;2.58;1.10;;;7.30;99.90;;;;;;5020216;28;20037;-81
2022/10/19 04:06:15;;;;;;;2.17;1.08;;;7.20;99.90;;;;;;5013736;28;20026;-81
2022/10/19 04:08:42;;;;;;;2.05;1.25;;;7.20;99.90;;;;;;5015390;28;20064;-81
2022/10/19 04:11:12;;;;;;;3.60;1.23;;;7.20;99.90;;;;;;4997320;28;20029;-81
2022/10/19 04:13:38;;;;;;;3.28;1.27;;;7.20;99.90;;;;;;4997726;28;20014;-81
2022/10/19 04:16:04;;;;;;;4.20;1.10;;;7.10;99.90;;;;;;4998646;28;20470;-81
2022/10/19 04:18:30;;;;;;;2.22;1.35;;;7.10;99.90;;;;;;4997329;28;20045;-81
2022/10/19 04:20:58;;;;;;;2.70;1.65;;;7.10;99.90;;;;;;4996062;28;20022;-81
2022/10/19 04:23:27;;;;;;;2.10;0.90;;;7.10;99.90;;;;;;4977057;28;20034;-81
2022/10/19 04:26:03;;;;;;;2.33;1.10;;;7.10;99.90;;;;;;4995694;28;20014;-81
2022/10/19 04:28:30;;;;;;;1.45;0.90;;;7.10;99.90;;;;;;5014512;28;20033;-81
2022/10/19 04:30:55;;;;;;;1.75;0.93;;;7.10;99.90;;;;;;4996296;28;20026;-81
2022/10/19 04:33:21;;;;;;;1.30;0.90;;;7.10;99.90;;;;;;5014608;28;20095;-80
2022/10/19 04:35:48;;;;;;;2.90;1.30;;;7.10;99.90;;;;;;4996375;28;20429;-81
2022/10/19 04:38:14;;;;;;;1.75;0.95;;;7.10;99.90;;;;;;4964323;28;20050;-81
2022/10/19 04:40:40;;;;;;;2.05;0.70;;;7.10;99.90;;;;;;4996655;28;20037;-81
2022/10/19 04:43:06;;;;;;;1.25;0.80;;;7.10;99.90;;;;;;4963991;28;20486;-81
2022/10/19 04:45:34;;;;;;;2.00;0.90;;;7.00;99.90;;;;;;4989637;28;20065;-81
2022/10/19 04:48:00;;;;;;;2.00;0.93;;;7.00;99.90;;;;;;5013741;28;20025;-81
2022/10/19 04:50:26;;;;;;;2.67;1.00;;;7.00;99.90;;;;;;4996261;28;20099;-81
2022/10/19 04:52:52;;;;;;;1.48;0.80;;;7.00;99.90;;;;;;5013755;28;20021;-81
2022/10/19 04:55:19;;;;;;;1.20;0.80;;;6.90;99.90;;;;;;4996326;28;20034;-81
2022/10/19 04:57:45;;;;;;;2.45;1.00;;;6.90;99.90;;;;;;4996122;28;20029;-81
2022/10/19 05:00:13;;;;;;;3.13;1.00;;;6.90;99.90;;;;;;4976530;28;20045;-81
2022/10/19 05:02:44;;;;;;;1.40;0.82;;;6.90;99.90;;;;;;4990353;28;20033;-81
2022/10/19 05:05:11;;;;;;;3.53;0.93;;;6.90;99.90;;;;;;5000404;28;20057;-81
2022/10/19 05:07:38;;;;;;;4.20;1.10;;;6.80;99.90;;;;;;4996198;28;20026;-80
2022/10/19 05:10:05;;;;;;;1.98;1.00;;;6.80;99.90;;;;;;4995711;28;20014;-81
2022/10/19 05:12:31;;;;;;;2.10;1.00;;;6.80;99.90;;;;;;4995321;28;20095;-81
2022/10/19 05:14:57;;;;;;;2.13;0.95;;;6.70;99.90;;;;;;4995979;28;20054;-81
2022/10/19 05:17:23;;;;;;;2.30;0.90;;;6.70;99.90;;;;;;4995709;28;20026;-81
2022/10/19 05:19:49;;;;;;;1.42;0.90;;;6.70;99.90;;;;;;4977945;28;20079;-80
2022/10/19 05:22:17;;;;;;;2.92;1.13;;;6.70;99.90;;;;;;4999150;28;20018;-80
2022/10/19 05:24:43;;;;;;;1.75;0.90;;;6.60;99.90;;;;;;5001898;28;20034;-80
2022/10/19 05:27:08;;;;;;;2.00;1.00;;;6.60;99.90;;;;;;5005006;28;20026;-79
2022/10/19 05:29:34;;;;;;;1.80;1.00;;;6.60;99.90;;;;;;5002977;28;20036;-79
2022/10/19 05:32:00;;;;;;;1.92;1.00;;;6.60;99.90;;;;;;4995257;28;20030;-80
2022/10/19 05:34:26;;;;;;;2.25;1.00;;;6.60;99.90;;;;;;4998338;28;20038;-81
2022/10/19 05:36:54;;;;;;;1.63;1.00;;;6.60;99.90;;;;;;4995245;28;20026;-80
2022/10/19 05:39:20;;;;;;;2.15;1.20;;;6.60;99.90;;;;;;4995912;28;20026;-80
2022/10/19 05:41:47;;;;;;;2.47;1.70;;;6.50;99.90;;;;;;4993929;28;20029;-80
2022/10/19 05:44:18;;;;;;;1.92;1.17;;;6.50;99.90;;;;;;4992190;28;20026;-80
2022/10/19 05:46:46;;;;;;;2.75;1.40;;;6.50;99.90;;;;;;5013194;28;20042;-80
2022/10/19 05:49:15;;;;;;;2.38;1.13;;;6.40;99.90;;;;;;4992496;28;20030;-80
2022/10/19 05:51:41;;;;;;;2.78;1.30;;;6.40;99.90;;;;;;4997948;28;20037;-80
2022/10/19 05:54:07;;;;;;;2.65;1.17;;;6.40;99.90;;;;;;4994610;28;20029;-81
2022/10/19 05:56:33;;;;;;;2.42;1.25;;;6.40;99.90;;;;;;4997151;28;20097;-80
2022/10/19 05:59:03;;;;;;;2.28;1.27;;;6.40;99.90;;;;;;4994789;28;20018;-81
2022/10/19 06:01:30;;;;;;;2.05;1.45;;;6.50;99.90;;;;;;4996927;28;20134;-81
2022/10/19 06:03:58;;;;;;;3.90;1.25;;;6.40;99.90;;;;;;4995194;28;20498;-80
2022/10/19 06:06:25;;;;;;;2.67;1.27;;;6.40;99.90;;;;;;5012528;28;20470;-79
2022/10/19 06:08:53;;;;;;;2.38;1.40;;;6.40;99.90;;;;;;5013130;28;20036;-80
2022/10/19 06:11:33;;;;;;;4.65;1.50;;;6.40;99.90;;;;;;4994437;28;20536;-80
2022/10/19 06:14:01;;;;;;;1.63;0.93;;;6.40;99.90;;;;;;4996132;28;20158;-81
2022/10/19 06:16:28;;;;;;;2.20;1.30;;;6.40;99.90;;;;;;4996743;28;20025;-80
2022/10/19 06:18:55;;;;;;;2.45;1.20;;;6.50;99.90;;;;;;5007347;28;20438;-81
2022/10/19 06:21:24;;;;;;;3.17;1.30;;;6.50;99.90;;;;;;5004360;28;20080;-81
2022/10/19 06:23:51;;;;;;;1.98;1.17;;;6.50;99.90;;;;;;5000093;28;20428;-81
2022/10/19 06:26:17;;;;;;;1.77;1.10;;;6.60;99.90;;;;;;4999479;28;20347;-81
2022/10/19 06:28:45;;;;;;;2.67;1.10;;;6.60;99.90;;;;;;5016888;28;20029;-82
2022/10/19 06:31:12;;;;;;;3.20;1.00;;;6.60;99.90;;;;;;5016897;28;20264;-81
2022/10/19 06:33:43;;;;;;;2.55;1.33;;;6.60;99.90;;;;;;4999114;28;20029;-81
2022/10/19 06:36:14;;;;;;;2.95;1.23;;;6.70;99.90;;;;;;4998973;28;20121;-82
2022/10/19 06:38:41;;;;;;;2.05;0.90;;;6.70;99.90;;;;;;4998559;28;20097;-82
2022/10/19 06:41:10;;;;;;;2.75;1.10;;;6.80;99.90;;;;;;4982745;28;20030;-82
2022/10/19 06:43:36;;;;;;;2.38;1.25;;;6.80;99.90;;;;;;4998711;28;20049;-81
2022/10/19 06:46:23;;;;;;;2.00;1.08;;;6.80;99.90;;;;;;4981881;28;20030;-82
2022/10/19 06:48:53;;;;;;;1.95;1.10;;;6.90;99.90;;;;;;4988558;28;20497;-82
2022/10/19 06:51:20;;;;;;;5.03;1.10;;;6.90;99.90;;;;;;4982334;28;20064;-81
2022/10/19 06:53:46;;;;;;;2.70;1.20;;;7.00;99.90;;;;;;4999106;28;20026;-81
2022/10/19 06:56:12;;;;;;;3.03;1.98;;;7.00;99.90;;;;;;5015572;28;20405;-81
2022/10/19 06:58:40;;;;;;;2.53;1.45;;;7.10;99.90;;;;;;4998252;28;20026;-82
2022/10/19 07:01:07;;;;;;;2.08;1.30;;;7.20;99.90;;;;;;4982261;28;20034;-81
2022/10/19 07:03:33;;;;;;;2.58;1.40;;;7.30;99.90;;;;;;4998525;28;20018;-81
2022/10/19 07:06:01;;;;;;;3.42;1.60;;;7.40;99.90;;;;;;5015651;28;20037;-81
2022/10/19 07:08:29;;;;;;;2.95;1.30;;;7.50;99.90;;;;;;5016121;28;20125;-81
2022/10/19 07:10:58;;;;;;;1.95;1.48;;;7.50;99.90;;;;;;5015793;28;20036;-81
2022/10/19 07:13:25;;;;;;;2.83;1.15;;;7.60;99.90;;;;;;4998188;28;20081;-81
2022/10/19 07:16:05;;;;;;;2.45;1.50;;;7.70;99.90;;;;;;4982017;28;20431;-81
2022/10/19 07:18:32;;;;;;;2.53;1.55;;;7.80;99.90;;;;;;4997841;28;20014;-81
2022/10/19 07:21:00;;;;;;;3.88;1.80;;;7.90;99.90;;;;;;4997523;28;20033;-80
2022/10/19 07:23:28;;;;;;;5.35;1.80;;;8.00;99.90;;;;;;5007700;28;20029;-79
2022/10/19 07:26:00;;;;;;;2.75;1.70;;;8.10;99.90;;;;;;5015162;28;20029;-80
2022/10/19 07:28:27;;;;;;;3.30;1.77;;;8.20;99.90;;;;;;5004845;28;20081;-80
2022/10/19 07:30:53;;;;;;;4.10;1.88;;;8.30;99.90;;;;;;5001513;28;20022;-81
2022/10/19 07:33:20;;;;;;;2.67;1.80;;;8.40;99.90;;;;;;4982876;28;20034;-81
2022/10/19 07:35:46;;;;;;;2.42;1.63;;;8.40;99.90;;;;;;4998893;28;20038;-81
2022/10/19 07:38:13;;;;;;;2.50;1.50;;;8.60;99.90;;;;;;5007862;28;20382;-81
2022/10/19 07:40:39;;;;;;;2.58;1.60;;;8.60;99.90;;;;;;5010514;28;20036;-81
2022/10/19 07:43:05;;;;;;;2.75;1.70;;;8.70;99.90;;;;;;4998213;28;20057;-81
2022/10/19 07:45:32;;;;;;;2.80;1.73;;;8.80;99.90;;;;;;4986302;28;20034;-80
2022/10/19 07:47:59;;;;;;;2.08;1.50;;;8.90;99.90;;;;;;5014587;28;20018;-81
2022/10/19 07:50:26;;;;;;;3.88;1.90;;;9.00;99.90;;;;;;4998537;28;20444;-81
2022/10/19 07:52:52;;;;;;;3.38;1.63;;;9.10;99.90;;;;;;5015314;28;20109;-80
2022/10/19 07:55:18;;;;;;;3.83;1.80;;;9.20;99.90;;;;;;4988604;28;20113;-80
2022/10/19 07:57:48;;;;;;;3.38;1.90;;;9.30;99.90;;;;;;5010139;28;20032;-80
2022/10/19 08:00:16;;;;;;;3.20;1.77;;;9.40;99.90;;;;;;4990177;28;20034;-80
2022/10/19 08:02:43;;;;;;;3.95;2.30;;;9.50;99.90;;;;;;4991681;28;20037;-80
2022/10/19 08:05:09;;;;;;;3.20;2.00;;;9.60;99.90;;;;;;4997144;28;20025;-80
2022/10/19 08:07:36;;;;;;;4.22;2.20;;;9.70;99.90;;;;;;4980405;28;20042;-80
2022/10/19 08:10:03;;;;;;;4.43;2.22;;;9.80;99.90;;;;;;4982077;28;20030;-81
2022/10/19 08:12:30;;;;;;;4.70;2.53;;;9.90;99.90;;;;;;4997364;28;20029;-80
2022/10/19 08:14:55;;;;;;;5.72;3.30;;;9.90;99.90;;;;;;4994368;28;20970;-80
2022/10/19 08:17:22;;;;;;;5.00;3.15;;;10.00;99.90;;;;;;5018637;28;20501;-80
2022/10/19 08:19:47;;;;;;;5.60;3.40;;;10.10;99.90;;;;;;5000062;28;20018;-80
2022/10/19 08:22:13;;;;;;;6.10;3.47;;;10.20;99.90;;;;;;5015564;28;20033;-80
2022/10/19 08:24:40;;;;;;;5.53;3.05;;;10.20;99.90;;;;;;5001501;28;20104;-81
2022/10/19 08:27:06;;;;;;;5.90;2.90;;;10.20;99.90;;;;;;4996372;28;20022;-81
2022/10/19 08:29:32;;;;;;;6.13;3.20;;;10.30;99.90;;;;;;4999499;28;20030;-81
2022/10/19 08:31:59;;;;;;;6.40;3.30;;;10.30;99.90;;;;;;5003805;28;20068;-81
2022/10/19 08:34:25;;;;;;;7.70;3.95;;;10.30;99.90;;;;;;5008864;28;20068;-80
2022/10/19 08:36:51;;;;;;;9.52;3.88;;;10.40;99.90;;;;;;5005520;28;20381;-81
2022/10/19 08:39:17;;;;;;;9.07;4.00;;;10.40;99.90;;;;;;4999149;28;20021;-81
2022/10/19 08:41:52;;;;;;;7.97;3.90;;;10.50;99.90;;;;;;4998463;28;20037;-82
2022/10/19 08:44:57;;;;;;;9.23;4.47;;;10.70;99.90;;;;;;4996377;28;20041;-81
2022/10/19 08:47:48;;;;;;;8.55;4.78;;;10.80;99.90;;;;;;4995844;28;20180;-81
2022/10/19 08:50:38;;;;;;;7.57;4.03;;;10.90;99.90;;;;;;4995896;28;20108;-81
2022/10/19 08:53:10;;;;;;;6.35;3.25;;;11.00;99.90;;;;;;5010485;28;20026;-81
2022/10/19 08:55:51;;;;;;;8.07;3.38;;;11.10;99.90;;;;;;4998752;28;20075;-82
2022/10/19 08:58:44;;;;;;;6.22;3.28;;;11.30;99.90;;;;;;4983066;28;20029;-80
2022/10/19 09:01:38;;;;;;;5.78;2.85;;;11.40;99.90;;;;;;5019289;28;21022;-80
2022/10/19 09:04:05;;;;;;;7.05;3.30;;;11.80;99.90;;;;;;5002257;28;20488;-81
2022/10/19 09:06:39;;;;;;;6.20;3.15;;;13.20;99.90;;;;;;5005716;28;20349;-80
2022/10/19 09:09:14;;;;;;;4.43;2.22;;;14.90;99.90;;;;;;4996932;28;20026;-80
2022/10/19 09:11:46;;;;;;;4.50;2.03;;;16.50;99.90;;;;;;4964673;28;20037;-80
2022/10/19 09:14:21;;;;;;;4.82;1.90;;;17.80;99.90;;;;;;4998744;28;20018;-79
2022/10/19 09:16:47;;;;;;;4.63;2.40;;;18.90;99.90;;;;;;5002388;28;20022;-80
2022/10/19 09:19:24;;;;;;;4.38;1.98;;;19.80;99.90;;;;;;5005580;28;20089;-79
2022/10/19 09:22:19;;;;;;;4.82;2.60;;;20.50;99.90;;;;;;5003021;28;20021;-80
2022/10/19 09:24:50;;;;;;;5.32;2.40;;;21.10;99.90;;;;;;4992718;28;20030;-80
2022/10/19 09:27:22;;;;;;;4.65;2.10;;;21.70;99.90;;;;;;5007634;28;20032;-81
2022/10/19 09:29:57;;;;;;;3.80;2.33;;;22.10;99.90;;;;;;5018381;28;20073;-81
2022/10/19 09:32:31;;;;;;;5.15;2.17;;;22.50;99.90;;;;;;5012649;28;20025;-81
2022/10/19 09:35:03;;;;;;;3.55;1.90;;;22.80;99.90;;;;;;5019861;28;20041;-81
2022/10/19 09:37:30;;;;;;;4.15;2.10;;;23.20;99.90;;;;;;4996443;28;20421;-81
2022/10/19 09:39:57;;;;;;;4.70;1.95;;;23.60;99.90;;;;;;4993214;28;20029;-82
2022/10/19 09:42:32;;;;;;;3.92;1.88;;;24.00;99.90;;;;;;4993649;28;20050;-81
2022/10/19 09:45:18;;;;;;;3.55;1.38;;;24.30;99.90;;;;;;4998750;28;20018;-82
2022/10/19 09:47:48;;;;;;;2.33;1.20;;;24.20;99.90;;;;;;5015371;28;20101;-82
2022/10/19 09:50:19;;;;;;;2.63;1.35;;;24.30;99.90;;;;;;4996353;28;20026;-82
2022/10/19 09:52:56;;;;;;;3.00;1.30;;;24.20;99.90;;;;;;4992903;28;20113;-81
2022/10/19 09:55:42;;;;;;;4.32;1.40;;;24.30;99.90;;;;;;5012887;28;20486;-81
2022/10/19 09:58:16;;;;;;;3.17;1.05;;;24.60;99.90;;;;;;5013715;28;20093;-82
2022/10/19 10:00:54;;;;;;;1.60;0.70;;;24.80;99.90;;;;;;4999324;28;20030;-79
2022/10/19 10:03:31;;;;;;;2.80;0.82;;;24.60;99.90;;;;;;4998870;28;20037;-82
2022/10/19 10:06:09;;;;;;;2.83;0.68;;;24.40;99.90;;;;;;5004348;28;20377;-81
2022/10/19 10:08:38;;;;;;;1.60;0.60;;;24.40;99.90;;;;;;5015747;28;20492;-80
2022/10/19 10:11:09;;;;;;;1.60;0.63;;;24.60;99.90;;;;;;5021221;28;20087;-81
2022/10/19 10:13:48;;;;;;;2.40;0.60;;;24.80;99.90;;;;;;4997144;28;20049;-82
2022/10/19 10:16:17;;;;;;;1.98;0.55;;;24.70;99.90;;;;;;4996123;28;20030;-82
2022/10/19 10:19:11;;;;;;;1.95;0.60;;;24.80;99.90;;;;;;4978330;28;20052;-82
2022/10/19 10:21:53;;;;;;;2.45;0.50;;;25.00;99.90;;;;;;4998219;28;20068;-82
2022/10/19 10:24:21;;;;;;;1.67;0.57;;;25.50;99.90;;;;;;4999288;28;20022;-81
2022/10/19 10:26:50;;;;;;;2.42;0.68;;;26.10;99.90;;;;;;5000782;28;20018;-82
2022/10/19 10:29:25;;;;;;;2.85;0.70;;;26.30;99.90;;;;;;4973791;28;20038;-81
2022/10/19 10:32:15;;;;;;;3.92;0.80;;;26.20;99.90;;;;;;5016347;28;20030;-82
2022/10/19 10:35:20;;;;;;;2.28;0.85;;;26.20;99.90;;;;;;4998857;28;20370;-80
2022/10/19 10:37:47;;;;;;;1.92;0.60;;;26.30;99.70;;;;;;5018594;28;20511;-81
2022/10/19 10:40:19;;;;;;;4.13;0.73;;;26.10;99.40;;;;;;5010779;28;20030;-81
2022/10/19 10:42:49;;;;;;;2.20;0.65;;;26.20;99.70;;;;;;5013858;28;20057;-83
2022/10/19 10:45:22;;;;;;;2.08;0.50;;;26.40;99.40;;;;;;4990394;28;20033;-82
2022/10/19 10:47:47;;;;;;;2.15;0.50;;;26.50;98.90;;;;;;5016604;28;20381;-82
2022/10/19 10:50:35;;;;;;;1.17;0.45;;;26.40;98.60;;;;;;5027663;28;20866;-82
2022/10/19 10:53:02;;;;;;;2.17;0.40;;;26.30;98.20;;;;;;4995622;28;20382;-81
2022/10/19 10:55:31;;;;;;;1.90;0.38;;;26.00;98.10;;;;;;4991263;28;20031;-82
2022/10/19 10:58:17;;;;;;;1.23;0.52;;;25.80;98.30;;;;;;4994799;28;20028;-82
2022/10/19 11:00:45;;;;;;;2.90;0.60;;;25.70;98.00;;;;;;5015055;28;20411;-81
2022/10/19 11:03:31;;;;;;;1.67;0.50;;;25.50;98.00;;;;;;4993071;28;20076;-80
2022/10/19 11:06:04;;;;;;;0.90;0.40;;;25.50;98.00;;;;;;4994572;28;20080;-81
2022/10/19 11:08:42;;;;;;;;;;;25.40;97.90;;;;;;4980481;28;20969;-81
2022/10/19 11:11:45;;;;;;;1.48;0.38;;;25.40;98.20;;;;;;4998519;28;19917;-81
2022/10/19 11:14:29;;;;;;;1.70;0.47;;;25.50;97.70;;;;;;4978128;28;20487;-80
2022/10/19 11:16:59;;;;;;;2.05;0.50;;;25.50;97.60;;;;;;4993574;28;20021;-79
2022/10/19 11:19:33;;;;;;;1.80;0.50;;;25.60;97.10;;;;;;5010305;28;20122;-80
2022/10/19 11:22:27;;;;;;;2.70;0.60;;;25.70;97.00;;;;;;5014560;28;20030;-80
2022/10/19 11:24:53;;;;;;;2.03;0.60;;;25.80;96.50;;;;;;5014586;28;20050;-81
2022/10/19 11:27:44;;;;;;;1.77;0.50;;;25.90;96.30;;;;;;5010931;28;20124;-80
2022/10/19 11:30:19;;;;;;;1.65;0.60;;;26.00;96.30;;;;;;4998482;28;20043;-81
2022/10/19 11:32:56;;;;;;;3.13;0.70;;;26.10;95.90;;;;;;5025495;28;20041;-81
2022/10/19 11:35:34;;;;;;;1.58;0.55;;;26.10;95.90;;;;;;5009383;28;20050;-79
2022/10/19 11:38:08;;;;;;;1.85;0.50;;;26.30;95.80;;;;;;5008895;28;20025;-79
2022/10/19 11:40:54;;;;;;;2.42;0.50;;;26.30;95.60;;;;;;4999995;28;20393;-80
2022/10/19 11:43:29;;;;;;;1.98;0.50;;;26.50;95.20;;;;;;4994623;28;20721;-81
2022/10/19 11:46:02;;;;;;;3.08;0.40;;;26.40;95.80;;;;;;4992334;28;20038;-81
2022/10/19 11:49:03;;;;;;;1.23;0.47;;;26.30;95.50;;;;;;4991671;28;20025;-81
2022/10/19 11:51:38;;;;;;;1.70;0.40;;;26.60;95.30;;;;;;4999755;28;20025;-80
2022/10/19 11:54:29;;;;;;;1.90;0.50;;;26.60;94.90;;;;;;5005800;28;20050;-81
2022/10/19 11:57:20;;;;;;;2.60;0.50;;;26.80;94.80;;;;;;5013407;28;20026;-81
2022/10/19 11:59:56;;;;;;;1.92;0.40;;;27.20;94.40;;;;;;5005960;28;20046;-80
2022/10/19 12:02:44;;;;;;;2.05;0.70;;;27.50;94.20;;;;;;5003863;28;20034;-79
2022/10/19 12:05:10;;;;;;;2.45;0.65;;;27.60;93.60;;;;;;5000874;28;20385;-80
2022/10/19 12:08:03;;;;;;;1.45;0.57;;;27.70;93.40;;;;;;5013448;28;20021;-81
2022/10/19 12:10:46;;;;;;;1.38;0.50;;;27.90;93.60;;;;;;5015940;28;20026;-79
2022/10/19 12:13:18;;;;;;;1.67;0.45;;;28.20;93.30;;;;;;4978921;28;20041;-80
2022/10/19 12:15:48;;;;;;;2.00;0.60;;;28.40;93.10;;;;;;4999205;28;20061;-82
2022/10/19 12:18:33;;;;;;;2.30;0.50;;;28.80;92.70;;;;;;5006852;28;20072;-81
2022/10/19 12:21:06;;;;;;;3.60;0.55;;;28.90;92.40;;;;;;4993041;28;20129;-80
2022/10/19 12:23:36;;;;;;;2.33;0.45;;;28.90;92.20;;;;;;4995885;28;20048;-80
2022/10/19 12:26:06;;;;;;;1.73;0.70;;;29.00;91.40;;;;;;5013419;28;20396;-81
2022/10/19 12:28:37;;;;;;;1.15;0.40;;;29.00;91.00;;;;;;4994498;28;20468;-81
2022/10/19 12:31:06;;;;;;;1.88;0.60;;;28.90;90.90;;;;;;4995549;28;20374;-80
2022/10/19 12:33:55;;;;;;;1.00;0.50;;;29.10;90.90;;;;;;5010573;28;20034;-80
2022/10/19 12:36:45;;;;;;;1.35;0.40;;;29.20;90.90;;;;;;5009078;28;20265;-81
2022/10/19 12:39:19;;;;;;;2.20;0.50;;;29.10;91.40;;;;;;5006893;28;20030;-81
2022/10/19 12:41:56;;;;;;;2.30;0.50;;;29.20;90.80;;;;;;4994071;28;20627;-81
2022/10/19 12:44:54;;;;;;;1.80;0.50;;;29.40;90.30;;;;;;4992180;28;20050;-81
2022/10/19 12:47:22;;;;;;;2.47;0.70;;;29.20;90.00;;;;;;4997241;28;20129;-81
2022/10/19 12:49:56;;;;;;;1.55;0.40;;;29.00;90.00;;;;;;5009917;28;20085;-81
2022/10/19 12:52:44;;;;;;;1.70;0.50;;;29.00;89.50;;;;;;4994383;28;20041;-80
2022/10/19 12:55:16;;;;;;;1.73;0.52;;;29.10;89.50;;;;;;4993380;28;20025;-83
2022/10/19 12:57:47;;;;;;;1.20;0.45;;;29.20;91.00;;;;;;4991678;28;20454;-81
2022/10/19 13:00:24;;;;;;;3.45;0.68;;;29.10;90.40;;;;;;5006193;28;20084;-81
2022/10/19 13:03:02;;;;;;;1.35;0.38;;;29.30;89.40;;;;;;4996633;28;20115;-82
2022/10/19 13:05:31;;;;;;;1.20;0.40;;;29.50;88.80;;;;;;5013313;28;20489;-81
2022/10/19 13:08:00;;;;;;;1.20;0.40;;;29.80;88.60;;;;;;5015482;28;20040;-80
2022/10/19 13:10:27;;;;;;;2.17;0.40;;;29.70;87.80;;;;;;4997327;28;20049;-79
2022/10/19 13:12:54;;;;;;;1.75;0.50;;;29.50;86.90;;;;;;5010758;28;20049;-80
2022/10/19 13:15:35;;;;;;;1.85;0.73;;;29.40;86.80;;;;;;4981743;28;20046;-80
2022/10/19 13:18:12;;;;;;;2.20;0.50;;;29.40;86.40;;;;;;4997115;28;20034;-80